sensor_id;sensor_type;location;lat;lon;timestamp;P1;durP1;ratioP1;P2;durP2;ratioP2
12601;SDS011;30282;16.436;99.370;2023-06-22T00:01:40;13.10;;;5.33;;
12601;SDS011;30282;16.436;99.370;2023-06-22T00:04:13;23.07;;;4.63;;
12601;SDS011;30282;16.436;99.370;2023-06-22T00:06:44;11.00;;;4.43;;
12601;SDS011;30282;16.436;99.370;2023-06-22T00:09:13;17.37;;;4.93;;
12601;SDS011;30282;16.436;99.370;2023-06-22T00:11:47;17.40;;;8.10;;
12601;SDS011;30282;16.436;99.370;2023-06-22T00:14:19;20.07;;;9.77;;
12601;SDS011;30282;16.436;99.370;2023-06-22T00:16:49;18.17;;;8.77;;
12601;SDS011;30282;16.436;99.370;2023-06-22T00:19:24;12.93;;;4.47;;
12601;SDS011;30282;16.436;99.370;2023-06-22T00:21:56;14.57;;;4.30;;
12601;SDS011;30282;16.436;99.370;2023-06-22T00:24:26;14.70;;;5.73;;
12601;SDS011;30282;16.436;99.370;2023-06-22T00:26:55;23.97;;;7.93;;
12601;SDS011;30282;16.436;99.370;2023-06-22T00:29:35;24.43;;;8.43;;
12601;SDS011;30282;16.436;99.370;2023-06-22T00:32:12;16.03;;;7.00;;
12601;SDS011;30282;16.436;99.370;2023-06-22T00:34:44;12.63;;;5.30;;
12601;SDS011;30282;16.436;99.370;2023-06-22T00:37:13;17.40;;;7.37;;
12601;SDS011;30282;16.436;99.370;2023-06-22T00:39:43;13.80;;;6.17;;
12601;SDS011;30282;16.436;99.370;2023-06-22T00:42:12;11.60;;;4.10;;
12601;SDS011;30282;16.436;99.370;2023-06-22T00:44:41;16.53;;;5.80;;
12601;SDS011;30282;16.436;99.370;2023-06-22T00:47:12;14.53;;;5.80;;
12601;SDS011;30282;16.436;99.370;2023-06-22T00:49:45;12.90;;;4.00;;
12601;SDS011;30282;16.436;99.370;2023-06-22T00:52:16;10.77;;;4.20;;
12601;SDS011;30282;16.436;99.370;2023-06-22T00:54:47;13.63;;;3.87;;
12601;SDS011;30282;16.436;99.370;2023-06-22T00:57:20;11.50;;;4.97;;
12601;SDS011;30282;16.436;99.370;2023-06-22T00:59:55;12.00;;;3.20;;
12601;SDS011;30282;16.436;99.370;2023-06-22T01:02:24;9.40;;;3.50;;
12601;SDS011;30282;16.436;99.370;2023-06-22T01:04:57;11.23;;;3.10;;
12601;SDS011;30282;16.436;99.370;2023-06-22T01:07:27;12.93;;;3.70;;
12601;SDS011;30282;16.436;99.370;2023-06-22T01:10:00;13.13;;;3.57;;
12601;SDS011;30282;16.436;99.370;2023-06-22T01:12:37;17.40;;;3.67;;
12601;SDS011;30282;16.436;99.370;2023-06-22T01:15:11;15.73;;;3.70;;
12601;SDS011;30282;16.436;99.370;2023-06-22T01:17:46;14.73;;;3.70;;
12601;SDS011;30282;16.436;99.370;2023-06-22T01:20:19;10.60;;;3.87;;
12601;SDS011;30282;16.436;99.370;2023-06-22T01:22:54;19.90;;;4.00;;
12601;SDS011;30282;16.436;99.370;2023-06-22T01:25:46;8.07;;;3.10;;
12601;SDS011;30282;16.436;99.370;2023-06-22T01:28:32;14.70;;;3.80;;
12601;SDS011;30282;16.436;99.370;2023-06-22T01:31:10;14.43;;;4.67;;
12601;SDS011;30282;16.436;99.370;2023-06-22T01:33:43;10.67;;;4.30;;
12601;SDS011;30282;16.436;99.370;2023-06-22T01:36:16;14.67;;;4.03;;
12601;SDS011;30282;16.436;99.370;2023-06-22T01:38:46;12.87;;;4.63;;
12601;SDS011;30282;16.436;99.370;2023-06-22T01:41:16;18.87;;;4.40;;
12601;SDS011;30282;16.436;99.370;2023-06-22T01:43:48;17.80;;;5.43;;
12601;SDS011;30282;16.436;99.370;2023-06-22T01:46:18;12.20;;;4.30;;
12601;SDS011;30282;16.436;99.370;2023-06-22T01:48:48;9.27;;;3.57;;
12601;SDS011;30282;16.436;99.370;2023-06-22T01:51:18;14.03;;;4.37;;
12601;SDS011;30282;16.436;99.370;2023-06-22T01:53:47;11.03;;;3.40;;
12601;SDS011;30282;16.436;99.370;2023-06-22T01:56:17;15.73;;;4.93;;
12601;SDS011;30282;16.436;99.370;2023-06-22T01:58:49;16.67;;;4.57;;
12601;SDS011;30282;16.436;99.370;2023-06-22T02:01:25;12.70;;;3.87;;
12601;SDS011;30282;16.436;99.370;2023-06-22T02:04:04;12.10;;;4.57;;
12601;SDS011;30282;16.436;99.370;2023-06-22T02:06:38;19.93;;;3.70;;
12601;SDS011;30282;16.436;99.370;2023-06-22T02:09:14;15.40;;;3.40;;
12601;SDS011;30282;16.436;99.370;2023-06-22T02:11:47;12.63;;;3.20;;
12601;SDS011;30282;16.436;99.370;2023-06-22T02:14:22;9.50;;;2.83;;
12601;SDS011;30282;16.436;99.370;2023-06-22T02:16:52;7.30;;;2.40;;
12601;SDS011;30282;16.436;99.370;2023-06-22T02:19:24;11.33;;;2.50;;
12601;SDS011;30282;16.436;99.370;2023-06-22T02:21:58;9.30;;;2.73;;
12601;SDS011;30282;16.436;99.370;2023-06-22T02:24:28;12.87;;;2.83;;
12601;SDS011;30282;16.436;99.370;2023-06-22T02:26:59;9.90;;;2.40;;
12601;SDS011;30282;16.436;99.370;2023-06-22T02:29:30;13.37;;;3.30;;
12601;SDS011;30282;16.436;99.370;2023-06-22T02:31:59;7.03;;;2.47;;
12601;SDS011;30282;16.436;99.370;2023-06-22T02:34:29;7.27;;;2.23;;
12601;SDS011;30282;16.436;99.370;2023-06-22T02:36:59;16.83;;;3.20;;
12601;SDS011;30282;16.436;99.370;2023-06-22T02:39:29;9.23;;;3.00;;
12601;SDS011;30282;16.436;99.370;2023-06-22T02:41:59;13.83;;;3.03;;
12601;SDS011;30282;16.436;99.370;2023-06-22T02:44:30;16.20;;;3.60;;
12601;SDS011;30282;16.436;99.370;2023-06-22T02:46:59;12.53;;;3.60;;
12601;SDS011;30282;16.436;99.370;2023-06-22T02:49:28;13.80;;;3.40;;
12601;SDS011;30282;16.436;99.370;2023-06-22T02:51:57;14.97;;;3.47;;
12601;SDS011;30282;16.436;99.370;2023-06-22T02:54:26;12.47;;;3.83;;
12601;SDS011;30282;16.436;99.370;2023-06-22T02:56:55;9.73;;;2.77;;
12601;SDS011;30282;16.436;99.370;2023-06-22T02:59:30;11.63;;;3.80;;
12601;SDS011;30282;16.436;99.370;2023-06-22T03:01:59;11.03;;;3.20;;
12601;SDS011;30282;16.436;99.370;2023-06-22T03:04:28;5.97;;;2.30;;
12601;SDS011;30282;16.436;99.370;2023-06-22T03:06:58;9.87;;;3.20;;
12601;SDS011;30282;16.436;99.370;2023-06-22T03:09:28;10.93;;;3.17;;
12601;SDS011;30282;16.436;99.370;2023-06-22T03:11:57;8.70;;;3.40;;
12601;SDS011;30282;16.436;99.370;2023-06-22T03:14:27;13.37;;;3.20;;
12601;SDS011;30282;16.436;99.370;2023-06-22T03:16:58;14.17;;;2.70;;
12601;SDS011;30282;16.436;99.370;2023-06-22T03:19:28;13.90;;;2.57;;
12601;SDS011;30282;16.436;99.370;2023-06-22T03:21:59;6.97;;;1.87;;
12601;SDS011;30282;16.436;99.370;2023-06-22T03:24:28;5.13;;;1.23;;
12601;SDS011;30282;16.436;99.370;2023-06-22T03:26:57;6.20;;;1.53;;
12601;SDS011;30282;16.436;99.370;2023-06-22T03:29:27;7.60;;;1.80;;
12601;SDS011;30282;16.436;99.370;2023-06-22T03:31:57;6.00;;;2.00;;
12601;SDS011;30282;16.436;99.370;2023-06-22T03:34:26;6.00;;;1.83;;
12601;SDS011;30282;16.436;99.370;2023-06-22T03:37:00;4.40;;;1.50;;
12601;SDS011;30282;16.436;99.370;2023-06-22T03:39:29;7.27;;;1.80;;
12601;SDS011;30282;16.436;99.370;2023-06-22T03:42:02;7.30;;;2.03;;
12601;SDS011;30282;16.436;99.370;2023-06-22T03:44:32;5.03;;;1.47;;
12601;SDS011;30282;16.436;99.370;2023-06-22T03:47:03;7.67;;;1.93;;
12601;SDS011;30282;16.436;99.370;2023-06-22T03:49:33;7.60;;;1.87;;
12601;SDS011;30282;16.436;99.370;2023-06-22T03:52:02;5.90;;;1.53;;
12601;SDS011;30282;16.436;99.370;2023-06-22T03:54:32;9.53;;;2.20;;
12601;SDS011;30282;16.436;99.370;2023-06-22T03:57:01;8.00;;;1.67;;
12601;SDS011;30282;16.436;99.370;2023-06-22T03:59:31;4.00;;;1.23;;
12601;SDS011;30282;16.436;99.370;2023-06-22T04:02:00;4.87;;;1.50;;
12601;SDS011;30282;16.436;99.370;2023-06-22T04:04:31;10.07;;;1.60;;
12601;SDS011;30282;16.436;99.370;2023-06-22T04:07:00;7.03;;;1.50;;
12601;SDS011;30282;16.436;99.370;2023-06-22T04:09:30;5.20;;;1.30;;
12601;SDS011;30282;16.436;99.370;2023-06-22T04:11:59;10.00;;;2.27;;
12601;SDS011;30282;16.436;99.370;2023-06-22T04:14:29;6.03;;;1.60;;
12601;SDS011;30282;16.436;99.370;2023-06-22T04:16:58;4.70;;;1.50;;
12601;SDS011;30282;16.436;99.370;2023-06-22T04:19:27;7.63;;;1.30;;
12601;SDS011;30282;16.436;99.370;2023-06-22T04:21:58;4.87;;;1.47;;
12601;SDS011;30282;16.436;99.370;2023-06-22T04:24:27;6.37;;;1.33;;
12601;SDS011;30282;16.436;99.370;2023-06-22T04:26:56;5.57;;;1.17;;
12601;SDS011;30282;16.436;99.370;2023-06-22T04:29:28;6.10;;;1.37;;
12601;SDS011;30282;16.436;99.370;2023-06-22T04:31:59;6.40;;;1.20;;
12601;SDS011;30282;16.436;99.370;2023-06-22T04:34:32;6.63;;;1.27;;
12601;SDS011;30282;16.436;99.370;2023-06-22T04:37:03;4.07;;;1.27;;
12601;SDS011;30282;16.436;99.370;2023-06-22T04:39:33;8.00;;;1.80;;
12601;SDS011;30282;16.436;99.370;2023-06-22T04:42:02;5.07;;;1.20;;
12601;SDS011;30282;16.436;99.370;2023-06-22T04:44:31;6.13;;;1.27;;
12601;SDS011;30282;16.436;99.370;2023-06-22T04:47:01;4.07;;;1.53;;
12601;SDS011;30282;16.436;99.370;2023-06-22T04:49:35;6.63;;;1.73;;
12601;SDS011;30282;16.436;99.370;2023-06-22T04:52:06;7.80;;;1.90;;
12601;SDS011;30282;16.436;99.370;2023-06-22T04:54:37;5.30;;;1.67;;
12601;SDS011;30282;16.436;99.370;2023-06-22T04:57:13;9.80;;;1.83;;
12601;SDS011;30282;16.436;99.370;2023-06-22T04:59:43;5.93;;;1.50;;
12601;SDS011;30282;16.436;99.370;2023-06-22T05:02:12;7.40;;;1.43;;
12601;SDS011;30282;16.436;99.370;2023-06-22T05:04:42;5.07;;;1.40;;
12601;SDS011;30282;16.436;99.370;2023-06-22T05:07:16;6.77;;;1.60;;
12601;SDS011;30282;16.436;99.370;2023-06-22T05:09:46;7.37;;;2.27;;
12601;SDS011;30282;16.436;99.370;2023-06-22T05:12:15;7.27;;;1.90;;
12601;SDS011;30282;16.436;99.370;2023-06-22T05:14:44;4.10;;;1.30;;
12601;SDS011;30282;16.436;99.370;2023-06-22T05:17:13;5.30;;;1.33;;
12601;SDS011;30282;16.436;99.370;2023-06-22T05:19:46;4.93;;;1.77;;
12601;SDS011;30282;16.436;99.370;2023-06-22T05:22:15;7.50;;;1.83;;
12601;SDS011;30282;16.436;99.370;2023-06-22T05:24:45;8.03;;;1.60;;
12601;SDS011;30282;16.436;99.370;2023-06-22T05:27:14;5.17;;;1.50;;
12601;SDS011;30282;16.436;99.370;2023-06-22T05:29:43;12.77;;;1.80;;
12601;SDS011;30282;16.436;99.370;2023-06-22T05:32:12;7.73;;;2.10;;
12601;SDS011;30282;16.436;99.370;2023-06-22T05:34:41;6.97;;;1.27;;
12601;SDS011;30282;16.436;99.370;2023-06-22T05:37:12;4.67;;;1.87;;
12601;SDS011;30282;16.436;99.370;2023-06-22T05:39:41;10.80;;;2.13;;
12601;SDS011;30282;16.436;99.370;2023-06-22T05:42:10;7.70;;;1.70;;
12601;SDS011;30282;16.436;99.370;2023-06-22T05:44:39;6.57;;;1.90;;
12601;SDS011;30282;16.436;99.370;2023-06-22T05:47:09;4.10;;;1.40;;
12601;SDS011;30282;16.436;99.370;2023-06-22T05:49:38;3.53;;;1.20;;
12601;SDS011;30282;16.436;99.370;2023-06-22T05:52:07;6.80;;;1.60;;
12601;SDS011;30282;16.436;99.370;2023-06-22T05:54:38;3.70;;;1.10;;
12601;SDS011;30282;16.436;99.370;2023-06-22T05:57:07;8.40;;;1.40;;
12601;SDS011;30282;16.436;99.370;2023-06-22T05:59:36;3.50;;;1.10;;
12601;SDS011;30282;16.436;99.370;2023-06-22T06:02:05;4.73;;;1.33;;
12601;SDS011;30282;16.436;99.370;2023-06-22T06:04:37;11.00;;;1.20;;
12601;SDS011;30282;16.436;99.370;2023-06-22T06:07:07;6.00;;;1.33;;
12601;SDS011;30282;16.436;99.370;2023-06-22T06:09:36;4.27;;;1.30;;
12601;SDS011;30282;16.436;99.370;2023-06-22T06:12:07;3.77;;;1.10;;
12601;SDS011;30282;16.436;99.370;2023-06-22T06:14:39;2.80;;;0.87;;
12601;SDS011;30282;16.436;99.370;2023-06-22T06:17:11;4.77;;;1.20;;
12601;SDS011;30282;16.436;99.370;2023-06-22T06:19:40;2.40;;;0.80;;
12601;SDS011;30282;16.436;99.370;2023-06-22T06:22:09;3.77;;;1.10;;
12601;SDS011;30282;16.436;99.370;2023-06-22T06:24:40;6.00;;;1.27;;
12601;SDS011;30282;16.436;99.370;2023-06-22T06:27:09;4.70;;;1.47;;
12601;SDS011;30282;16.436;99.370;2023-06-22T06:29:38;11.50;;;1.33;;
12601;SDS011;30282;16.436;99.370;2023-06-22T06:32:07;7.90;;;1.00;;
12601;SDS011;30282;16.436;99.370;2023-06-22T06:34:37;3.70;;;1.20;;
12601;SDS011;30282;16.436;99.370;2023-06-22T06:37:06;5.67;;;1.30;;
12601;SDS011;30282;16.436;99.370;2023-06-22T06:39:35;4.57;;;1.23;;
12601;SDS011;30282;16.436;99.370;2023-06-22T06:42:06;5.47;;;1.03;;
12601;SDS011;30282;16.436;99.370;2023-06-22T06:44:36;4.50;;;1.17;;
12601;SDS011;30282;16.436;99.370;2023-06-22T06:47:06;6.60;;;0.90;;
12601;SDS011;30282;16.436;99.370;2023-06-22T06:49:35;3.70;;;1.10;;
12601;SDS011;30282;16.436;99.370;2023-06-22T06:52:07;4.40;;;1.23;;
12601;SDS011;30282;16.436;99.370;2023-06-22T06:54:36;7.27;;;1.00;;
12601;SDS011;30282;16.436;99.370;2023-06-22T06:57:09;3.33;;;0.97;;
12601;SDS011;30282;16.436;99.370;2023-06-22T06:59:39;4.43;;;0.80;;
12601;SDS011;30282;16.436;99.370;2023-06-22T07:02:08;3.77;;;0.80;;
12601;SDS011;30282;16.436;99.370;2023-06-22T07:04:37;12.00;;;1.20;;
12601;SDS011;30282;16.436;99.370;2023-06-22T07:07:06;6.20;;;1.20;;
12601;SDS011;30282;16.436;99.370;2023-06-22T07:09:36;4.67;;;0.97;;
12601;SDS011;30282;16.436;99.370;2023-06-22T07:12:05;3.97;;;1.40;;
12601;SDS011;30282;16.436;99.370;2023-06-22T07:14:36;6.93;;;1.07;;
12601;SDS011;30282;16.436;99.370;2023-06-22T07:17:05;3.53;;;0.90;;
12601;SDS011;30282;16.436;99.370;2023-06-22T07:19:34;3.00;;;1.10;;
12601;SDS011;30282;16.436;99.370;2023-06-22T07:22:04;4.50;;;1.20;;
12601;SDS011;30282;16.436;99.370;2023-06-22T07:24:33;6.50;;;1.10;;
12601;SDS011;30282;16.436;99.370;2023-06-22T07:27:03;3.90;;;1.30;;
12601;SDS011;30282;16.436;99.370;2023-06-22T07:29:32;3.63;;;1.10;;
12601;SDS011;30282;16.436;99.370;2023-06-22T07:32:04;5.20;;;1.20;;
12601;SDS011;30282;16.436;99.370;2023-06-22T07:34:33;5.00;;;1.20;;
12601;SDS011;30282;16.436;99.370;2023-06-22T07:37:04;4.60;;;1.20;;
12601;SDS011;30282;16.436;99.370;2023-06-22T07:39:40;12.80;;;1.50;;
12601;SDS011;30282;16.436;99.370;2023-06-22T07:42:11;6.67;;;1.23;;
12601;SDS011;30282;16.436;99.370;2023-06-22T07:44:44;3.80;;;1.00;;
12601;SDS011;30282;16.436;99.370;2023-06-22T07:47:18;4.10;;;1.13;;
12601;SDS011;30282;16.436;99.370;2023-06-22T07:49:51;4.40;;;1.30;;
12601;SDS011;30282;16.436;99.370;2023-06-22T07:52:21;22.67;;;1.50;;
12601;SDS011;30282;16.436;99.370;2023-06-22T07:54:53;4.57;;;1.23;;
12601;SDS011;30282;16.436;99.370;2023-06-22T07:57:22;4.87;;;0.97;;
12601;SDS011;30282;16.436;99.370;2023-06-22T07:59:57;6.17;;;1.57;;
12601;SDS011;30282;16.436;99.370;2023-06-22T08:02:29;4.93;;;1.30;;
12601;SDS011;30282;16.436;99.370;2023-06-22T08:04:59;3.83;;;0.90;;
12601;SDS011;30282;16.436;99.370;2023-06-22T08:07:28;3.90;;;1.00;;
12601;SDS011;30282;16.436;99.370;2023-06-22T08:09:59;2.60;;;0.80;;
12601;SDS011;30282;16.436;99.370;2023-06-22T08:12:28;4.83;;;1.20;;
12601;SDS011;30282;16.436;99.370;2023-06-22T08:14:57;6.40;;;1.00;;
12601;SDS011;30282;16.436;99.370;2023-06-22T08:17:26;2.90;;;1.10;;
12601;SDS011;30282;16.436;99.370;2023-06-22T08:19:57;2.70;;;1.00;;
12601;SDS011;30282;16.436;99.370;2023-06-22T08:22:34;3.83;;;1.00;;
12601;SDS011;30282;16.436;99.370;2023-06-22T08:25:07;7.80;;;1.63;;
12601;SDS011;30282;16.436;99.370;2023-06-22T08:27:37;5.50;;;1.20;;
12601;SDS011;30282;16.436;99.370;2023-06-22T08:30:06;3.80;;;1.07;;
12601;SDS011;30282;16.436;99.370;2023-06-22T08:32:39;12.60;;;1.40;;
12601;SDS011;30282;16.436;99.370;2023-06-22T08:35:08;4.37;;;1.03;;
12601;SDS011;30282;16.436;99.370;2023-06-22T08:37:37;4.43;;;1.43;;
12601;SDS011;30282;16.436;99.370;2023-06-22T08:40:07;3.03;;;0.90;;
12601;SDS011;30282;16.436;99.370;2023-06-22T08:42:40;12.93;;;1.43;;
12601;SDS011;30282;16.436;99.370;2023-06-22T08:45:10;4.40;;;0.90;;
12601;SDS011;30282;16.436;99.370;2023-06-22T08:47:41;3.90;;;1.40;;
12601;SDS011;30282;16.436;99.370;2023-06-22T08:50:12;4.70;;;1.00;;
12601;SDS011;30282;16.436;99.370;2023-06-22T08:52:41;5.70;;;1.27;;
12601;SDS011;30282;16.436;99.370;2023-06-22T08:55:11;6.57;;;1.30;;
12601;SDS011;30282;16.436;99.370;2023-06-22T08:57:40;5.27;;;1.13;;
12601;SDS011;30282;16.436;99.370;2023-06-22T09:00:10;4.00;;;0.80;;
12601;SDS011;30282;16.436;99.370;2023-06-22T09:02:46;4.90;;;1.57;;
12601;SDS011;30282;16.436;99.370;2023-06-22T09:05:15;2.63;;;0.80;;
12601;SDS011;30282;16.436;99.370;2023-06-22T09:07:44;3.80;;;1.13;;
12601;SDS011;30282;16.436;99.370;2023-06-22T09:10:14;4.83;;;1.23;;
12601;SDS011;30282;16.436;99.370;2023-06-22T09:12:43;5.10;;;1.10;;
12601;SDS011;30282;16.436;99.370;2023-06-22T09:15:12;4.50;;;1.33;;
12601;SDS011;30282;16.436;99.370;2023-06-22T09:17:41;5.83;;;1.33;;
12601;SDS011;30282;16.436;99.370;2023-06-22T09:20:14;4.37;;;1.50;;
12601;SDS011;30282;16.436;99.370;2023-06-22T09:22:44;8.33;;;2.30;;
12601;SDS011;30282;16.436;99.370;2023-06-22T09:25:16;5.53;;;3.67;;
12601;SDS011;30282;16.436;99.370;2023-06-22T09:27:46;7.37;;;1.90;;
12601;SDS011;30282;16.436;99.370;2023-06-22T09:30:15;4.83;;;1.77;;
12601;SDS011;30282;16.436;99.370;2023-06-22T09:32:45;6.30;;;2.80;;
12601;SDS011;30282;16.436;99.370;2023-06-22T09:35:15;3.77;;;1.70;;
12601;SDS011;30282;16.436;99.370;2023-06-22T09:37:45;10.80;;;5.27;;
12601;SDS011;30282;16.436;99.370;2023-06-22T09:40:17;6.00;;;1.80;;
12601;SDS011;30282;16.436;99.370;2023-06-22T09:42:46;5.23;;;1.43;;
12601;SDS011;30282;16.436;99.370;2023-06-22T09:45:16;5.20;;;1.80;;
12601;SDS011;30282;16.436;99.370;2023-06-22T09:47:45;4.57;;;1.40;;
12601;SDS011;30282;16.436;99.370;2023-06-22T09:50:15;3.87;;;1.70;;
12601;SDS011;30282;16.436;99.370;2023-06-22T09:52:45;7.47;;;2.10;;
12601;SDS011;30282;16.436;99.370;2023-06-22T09:55:16;5.57;;;2.13;;
12601;SDS011;30282;16.436;99.370;2023-06-22T09:57:48;11.53;;;2.03;;
12601;SDS011;30282;16.436;99.370;2023-06-22T10:00:18;9.37;;;2.70;;
12601;SDS011;30282;16.436;99.370;2023-06-22T10:02:50;6.07;;;1.90;;
12601;SDS011;30282;16.436;99.370;2023-06-22T10:05:21;5.77;;;2.10;;
12601;SDS011;30282;16.436;99.370;2023-06-22T10:07:50;8.17;;;3.57;;
12601;SDS011;30282;16.436;99.370;2023-06-22T10:10:19;17.30;;;4.20;;
12601;SDS011;30282;16.436;99.370;2023-06-22T10:12:55;15.87;;;5.27;;
12601;SDS011;30282;16.436;99.370;2023-06-22T10:15:25;10.97;;;5.33;;
12601;SDS011;30282;16.436;99.370;2023-06-22T10:17:54;11.10;;;7.23;;
12601;SDS011;30282;16.436;99.370;2023-06-22T10:20:25;10.20;;;3.97;;
12601;SDS011;30282;16.436;99.370;2023-06-22T10:22:54;4.50;;;1.80;;
12601;SDS011;30282;16.436;99.370;2023-06-22T10:25:24;5.93;;;2.50;;
12601;SDS011;30282;16.436;99.370;2023-06-22T10:27:54;5.67;;;2.33;;
12601;SDS011;30282;16.436;99.370;2023-06-22T10:30:23;10.10;;;2.33;;
12601;SDS011;30282;16.436;99.370;2023-06-22T10:32:52;7.03;;;2.97;;
12601;SDS011;30282;16.436;99.370;2023-06-22T10:35:21;5.50;;;2.23;;
12601;SDS011;30282;16.436;99.370;2023-06-22T10:37:52;6.93;;;1.80;;
12601;SDS011;30282;16.436;99.370;2023-06-22T10:40:21;5.53;;;1.93;;
12601;SDS011;30282;16.436;99.370;2023-06-22T10:42:51;10.43;;;2.03;;
12601;SDS011;30282;16.436;99.370;2023-06-22T10:45:20;4.57;;;1.60;;
12601;SDS011;30282;16.436;99.370;2023-06-22T10:47:49;6.23;;;1.80;;
12601;SDS011;30282;16.436;99.370;2023-06-22T10:50:18;10.10;;;2.07;;
12601;SDS011;30282;16.436;99.370;2023-06-22T10:52:49;4.90;;;1.90;;
12601;SDS011;30282;16.436;99.370;2023-06-22T10:55:20;5.93;;;1.80;;
12601;SDS011;30282;16.436;99.370;2023-06-22T10:57:49;8.93;;;1.70;;
12601;SDS011;30282;16.436;99.370;2023-06-22T11:00:21;8.30;;;2.13;;
12601;SDS011;30282;16.436;99.370;2023-06-22T11:02:50;10.10;;;1.80;;
12601;SDS011;30282;16.436;99.370;2023-06-22T11:05:19;10.67;;;1.83;;
12601;SDS011;30282;16.436;99.370;2023-06-22T11:07:49;10.07;;;1.70;;
12601;SDS011;30282;16.436;99.370;2023-06-22T11:10:19;5.53;;;1.77;;
12601;SDS011;30282;16.436;99.370;2023-06-22T11:12:48;5.50;;;2.00;;
12601;SDS011;30282;16.436;99.370;2023-06-22T11:15:18;6.50;;;2.30;;
12601;SDS011;30282;16.436;99.370;2023-06-22T11:17:50;6.70;;;1.80;;
12601;SDS011;30282;16.436;99.370;2023-06-22T11:20:20;9.90;;;2.30;;
12601;SDS011;30282;16.436;99.370;2023-06-22T11:22:49;4.70;;;1.50;;
12601;SDS011;30282;16.436;99.370;2023-06-22T11:25:20;8.40;;;1.93;;
12601;SDS011;30282;16.436;99.370;2023-06-22T11:27:49;7.47;;;2.50;;
12601;SDS011;30282;16.436;99.370;2023-06-22T11:30:19;6.43;;;1.73;;
12601;SDS011;30282;16.436;99.370;2023-06-22T11:32:48;7.40;;;2.40;;
12601;SDS011;30282;16.436;99.370;2023-06-22T11:35:17;8.90;;;2.23;;
12601;SDS011;30282;16.436;99.370;2023-06-22T11:37:46;7.43;;;3.57;;
12601;SDS011;30282;16.436;99.370;2023-06-22T11:40:16;9.70;;;3.20;;
12601;SDS011;30282;16.436;99.370;2023-06-22T11:42:46;6.60;;;2.23;;
12601;SDS011;30282;16.436;99.370;2023-06-22T11:45:16;7.80;;;2.17;;
12601;SDS011;30282;16.436;99.370;2023-06-22T11:47:46;7.00;;;2.87;;
12601;SDS011;30282;16.436;99.370;2023-06-22T11:50:15;10.53;;;4.00;;
12601;SDS011;30282;16.436;99.370;2023-06-22T11:52:44;12.50;;;5.20;;
12601;SDS011;30282;16.436;99.370;2023-06-22T11:55:13;14.00;;;6.70;;
12601;SDS011;30282;16.436;99.370;2023-06-22T11:57:53;16.60;;;9.43;;
12601;SDS011;30282;16.436;99.370;2023-06-22T12:00:28;19.40;;;10.43;;
12601;SDS011;30282;16.436;99.370;2023-06-22T12:02:58;19.73;;;11.03;;
12601;SDS011;30282;16.436;99.370;2023-06-22T12:05:27;18.10;;;9.80;;
12601;SDS011;30282;16.436;99.370;2023-06-22T12:07:56;14.30;;;5.47;;
12601;SDS011;30282;16.436;99.370;2023-06-22T12:10:25;10.00;;;2.97;;
12601;SDS011;30282;16.436;99.370;2023-06-22T12:12:56;8.13;;;3.23;;
12601;SDS011;30282;16.436;99.370;2023-06-22T12:15:25;10.63;;;3.60;;
12601;SDS011;30282;16.436;99.370;2023-06-22T12:17:55;8.87;;;3.70;;
12601;SDS011;30282;16.436;99.370;2023-06-22T12:20:24;17.10;;;4.30;;
12601;SDS011;30282;16.436;99.370;2023-06-22T12:22:53;13.87;;;4.17;;
12601;SDS011;30282;16.436;99.370;2023-06-22T12:25:23;12.83;;;4.63;;
12601;SDS011;30282;16.436;99.370;2023-06-22T12:27:53;13.13;;;5.77;;
12601;SDS011;30282;16.436;99.370;2023-06-22T12:30:24;9.63;;;4.30;;
12601;SDS011;30282;16.436;99.370;2023-06-22T12:32:53;10.47;;;4.90;;
12601;SDS011;30282;16.436;99.370;2023-06-22T12:35:22;10.83;;;3.90;;
12601;SDS011;30282;16.436;99.370;2023-06-22T12:37:51;10.00;;;4.27;;
12601;SDS011;30282;16.436;99.370;2023-06-22T12:40:20;8.27;;;3.60;;
12601;SDS011;30282;16.436;99.370;2023-06-22T12:42:49;7.93;;;3.27;;
12601;SDS011;30282;16.436;99.370;2023-06-22T12:45:18;7.23;;;3.03;;
12601;SDS011;30282;16.436;99.370;2023-06-22T12:47:49;11.67;;;2.67;;
12601;SDS011;30282;16.436;99.370;2023-06-22T12:50:18;6.80;;;2.17;;
12601;SDS011;30282;16.436;99.370;2023-06-22T12:52:47;5.43;;;1.70;;
12601;SDS011;30282;16.436;99.370;2023-06-22T12:55:17;10.77;;;2.30;;
12601;SDS011;30282;16.436;99.370;2023-06-22T12:57:46;9.33;;;1.70;;
12601;SDS011;30282;16.436;99.370;2023-06-22T13:00:16;5.40;;;1.40;;
12601;SDS011;30282;16.436;99.370;2023-06-22T13:02:52;6.70;;;2.23;;
12601;SDS011;30282;16.436;99.370;2023-06-22T13:05:29;5.17;;;1.90;;
12601;SDS011;30282;16.436;99.370;2023-06-22T13:08:00;7.23;;;1.97;;
12601;SDS011;30282;16.436;99.370;2023-06-22T13:10:32;8.77;;;2.20;;
12601;SDS011;30282;16.436;99.370;2023-06-22T13:13:04;7.40;;;3.27;;
12601;SDS011;30282;16.436;99.370;2023-06-22T13:15:36;8.23;;;3.87;;
12601;SDS011;30282;16.436;99.370;2023-06-22T13:18:07;9.23;;;4.17;;
12601;SDS011;30282;16.436;99.370;2023-06-22T13:20:36;7.40;;;2.20;;
12601;SDS011;30282;16.436;99.370;2023-06-22T13:23:05;9.13;;;2.23;;
12601;SDS011;30282;16.436;99.370;2023-06-22T13:25:34;6.90;;;2.00;;
12601;SDS011;30282;16.436;99.370;2023-06-22T13:28:03;6.23;;;1.40;;
12601;SDS011;30282;16.436;99.370;2023-06-22T13:30:32;4.80;;;1.53;;
12601;SDS011;30282;16.436;99.370;2023-06-22T13:33:02;8.23;;;1.77;;
12601;SDS011;30282;16.436;99.370;2023-06-22T13:35:32;13.03;;;2.80;;
12601;SDS011;30282;16.436;99.370;2023-06-22T13:38:03;6.27;;;1.50;;
12601;SDS011;30282;16.436;99.370;2023-06-22T13:40:32;7.33;;;1.97;;
12601;SDS011;30282;16.436;99.370;2023-06-22T13:43:01;13.40;;;1.80;;
12601;SDS011;30282;16.436;99.370;2023-06-22T13:45:31;5.63;;;1.60;;
12601;SDS011;30282;16.436;99.370;2023-06-22T13:48:00;9.00;;;1.53;;
12601;SDS011;30282;16.436;99.370;2023-06-22T13:50:29;7.57;;;1.67;;
12601;SDS011;30282;16.436;99.370;2023-06-22T13:53:00;6.90;;;1.53;;
12601;SDS011;30282;16.436;99.370;2023-06-22T13:55:32;5.10;;;1.53;;
12601;SDS011;30282;16.436;99.370;2023-06-22T13:58:01;5.10;;;1.57;;
12601;SDS011;30282;16.436;99.370;2023-06-22T14:00:30;5.40;;;1.17;;
12601;SDS011;30282;16.436;99.370;2023-06-22T14:02:59;5.47;;;1.40;;
12601;SDS011;30282;16.436;99.370;2023-06-22T14:05:31;3.53;;;1.00;;
12601;SDS011;30282;16.436;99.370;2023-06-22T14:08:04;5.97;;;1.30;;
12601;SDS011;30282;16.436;99.370;2023-06-22T14:10:36;3.20;;;1.17;;
12601;SDS011;30282;16.436;99.370;2023-06-22T14:13:05;4.03;;;1.10;;
12601;SDS011;30282;16.436;99.370;2023-06-22T14:15:37;3.40;;;0.90;;
12601;SDS011;30282;16.436;99.370;2023-06-22T14:18:06;3.90;;;1.10;;
12601;SDS011;30282;16.436;99.370;2023-06-22T14:20:37;7.53;;;1.23;;
12601;SDS011;30282;16.436;99.370;2023-06-22T14:23:06;4.97;;;1.27;;
12601;SDS011;30282;16.436;99.370;2023-06-22T14:25:35;9.83;;;1.10;;
12601;SDS011;30282;16.436;99.370;2023-06-22T14:28:04;2.77;;;0.73;;
12601;SDS011;30282;16.436;99.370;2023-06-22T14:30:33;3.83;;;0.93;;
12601;SDS011;30282;16.436;99.370;2023-06-22T14:33:02;2.87;;;0.90;;
12601;SDS011;30282;16.436;99.370;2023-06-22T14:35:33;5.30;;;1.13;;
12601;SDS011;30282;16.436;99.370;2023-06-22T14:38:04;4.20;;;1.10;;
12601;SDS011;30282;16.436;99.370;2023-06-22T14:40:34;5.90;;;1.00;;
12601;SDS011;30282;16.436;99.370;2023-06-22T14:43:03;6.20;;;1.97;;
12601;SDS011;30282;16.436;99.370;2023-06-22T14:45:32;3.90;;;1.00;;
12601;SDS011;30282;16.436;99.370;2023-06-22T14:48:03;4.70;;;1.17;;
12601;SDS011;30282;16.436;99.370;2023-06-22T14:50:33;4.67;;;1.37;;